Terminal Aerodrome Forecast
Issued by NWS

Home | Current Version | Previous Version | Text Only | Print | Product List | Glossary On
Versions: 1 2 3 4 5 6 7 8 9 10 11 12
853
FTUS44 KBMX 102320
TAFMGM
TAF
KMGM 102320Z 1100/1124 00000KT P6SM SKC
     FM111500 10006KT P6SM SCT015 OVC025
     FM112100 13004KT P6SM SCT250=

USA.gov is the U.S. government's official web portal to all federal, state and local government web resources and services.